Time;durP1;ratioP1;P1;durP2;ratioP2;P2;SDS_P1;SDS_P2;PMS_P1;PMS_P2;Temp;Humidity;BMP_temperature;BMP_pressure;BME280_temperature;BME280_humidity;BME280_pressure;Samples;Min_cycle;Max_cycle;Signal;HPM_P1;HPM_P2
2023/03/07 00:01:27;;;;;;;69.18;10.45;;;4.70;99.90;;;;;;5071568;28;20205;-70
2023/03/07 00:03:54;;;;;;;68.65;10.43;;;4.60;99.90;;;;;;5071387;28;20217;-70
2023/03/07 00:06:22;;;;;;;69.30;11.18;;;4.60;99.90;;;;;;5071351;28;20225;-71
2023/03/07 00:08:50;;;;;;;67.88;10.07;;;4.60;99.90;;;;;;5070979;28;20630;-70
2023/03/07 00:11:16;;;;;;;72.00;10.98;;;4.60;99.90;;;;;;5071286;28;20673;-70
2023/03/07 00:13:43;;;;;;;69.97;10.65;;;4.50;99.90;;;;;;5071551;28;20205;-69
2023/03/07 00:16:12;;;;;;;68.40;10.98;;;4.60;99.90;;;;;;5071193;28;20225;-69
2023/03/07 00:18:40;;;;;;;69.68;10.90;;;4.40;99.90;;;;;;5071446;28;20209;-69
2023/03/07 00:21:09;;;;;;;67.38;10.90;;;4.40;99.90;;;;;;5075106;28;20221;-70
2023/03/07 00:23:39;;;;;;;71.05;11.82;;;4.50;99.90;;;;;;5074751;28;20232;-69
2023/03/07 00:26:08;;;;;;;69.60;11.38;;;4.50;99.90;;;;;;5074945;28;20229;-69
2023/03/07 00:28:35;;;;;;;70.03;11.48;;;4.50;99.90;;;;;;5074582;28;20215;-69
2023/03/07 00:31:03;;;;;;;70.82;10.85;;;4.60;99.90;;;;;;5075116;28;20209;-69
2023/03/07 00:33:30;;;;;;;70.28;11.77;;;4.70;99.90;;;;;;5074709;28;20198;-70
2023/03/07 00:36:00;;;;;;;67.85;10.57;;;4.70;99.90;;;;;;5074575;28;20220;-70
2023/03/07 00:38:28;;;;;;;68.78;10.98;;;4.70;99.90;;;;;;5074846;28;20205;-70
2023/03/07 00:41:04;;;;;;;68.55;11.40;;;4.60;99.90;;;;;;5074404;28;20213;-69
2023/03/07 00:43:32;;;;;;;70.22;11.50;;;;;;;;;;5074554;28;20224;-70
2023/03/07 00:45:59;;;;;;;68.07;10.15;;;4.70;99.90;;;;;;5074551;28;20229;-69
2023/03/07 00:48:27;;;;;;;71.40;10.90;;;4.60;99.90;;;;;;5074423;28;20589;-70
2023/03/07 00:50:54;;;;;;;71.32;11.60;;;4.80;99.90;;;;;;5074580;28;20212;-70
2023/03/07 00:53:21;;;;;;;68.22;10.65;;;4.70;99.90;;;;;;5074654;28;20574;-70
2023/03/07 00:55:56;;;;;;;70.57;11.05;;;4.70;99.90;;;;;;5074428;28;20229;-69
2023/03/07 00:58:24;;;;;;;70.82;11.15;;;4.70;99.90;;;;;;5074291;28;20215;-70
2023/03/07 01:00:51;;;;;;;69.40;10.43;;;4.70;99.90;;;;;;5074074;28;20587;-70
2023/03/07 01:03:19;;;;;;;70.03;11.68;;;4.60;99.90;;;;;;5074100;28;20227;-70
2023/03/07 01:05:46;;;;;;;68.60;9.35;;;4.60;99.90;;;;;;5074336;28;20229;-70
2023/03/07 01:08:13;;;;;;;73.25;11.07;;;4.70;99.90;;;;;;5074162;28;20299;-70
2023/03/07 01:10:40;;;;;;;67.85;10.20;;;4.80;99.90;;;;;;5073978;28;20205;-70
2023/03/07 01:13:06;;;;;;;66.90;10.25;;;4.90;99.90;;;;;;5074559;28;20231;-70
2023/03/07 01:15:35;;;;;;;68.97;10.57;;;4.80;99.90;;;;;;5073886;28;20776;-70
2023/03/07 01:18:01;;;;;;;68.65;10.35;;;4.90;99.90;;;;;;5074116;28;20216;-70
2023/03/07 01:20:31;;;;;;;71.68;10.80;;;4.80;99.90;;;;;;5073846;28;20579;-71
2023/03/07 01:22:58;;;;;;;68.05;9.93;;;4.70;99.90;;;;;;5074037;28;20206;-70
2023/03/07 01:25:24;;;;;;;67.55;10.07;;;4.80;99.90;;;;;;5073687;28;20717;-70
2023/03/07 01:27:51;;;;;;;66.72;10.40;;;4.80;99.90;;;;;;5073818;28;20211;-70
2023/03/07 01:30:18;;;;;;;67.18;10.00;;;5.00;99.90;;;;;;5073013;28;20209;-71
2023/03/07 01:32:47;;;;;;;68.68;10.13;;;5.00;99.90;;;;;;5073692;28;20219;-70
2023/03/07 01:35:14;;;;;;;66.97;9.55;;;;;;;;;;5073856;28;20243;-69
2023/03/07 01:37:41;;;;;;;69.55;10.15;;;4.90;99.90;;;;;;5073730;28;20202;-69
2023/03/07 01:40:09;;;;;;;67.30;10.23;;;4.80;99.90;;;;;;5073153;28;20209;-70
2023/03/07 01:42:36;;;;;;;68.55;9.75;;;4.80;99.90;;;;;;5073430;28;20209;-69
2023/03/07 01:45:06;;;;;;;67.50;9.68;;;;;;;;;;5073520;28;20709;-70
2023/03/07 01:47:33;;;;;;;71.47;10.60;;;;;;;;;;5073434;28;20209;-70
2023/03/07 01:50:03;;;;;;;69.53;11.02;;;;;;;;;;5073223;28;20205;-70
2023/03/07 01:52:32;;;;;;;69.13;10.75;;;;;;;;;;5073379;28;20210;-69
2023/03/07 01:55:01;;;;;;;66.75;9.80;;;;;;;;;;5073238;28;20205;-70
2023/03/07 01:57:32;;;;;;;68.72;10.15;;;;;;;;;;5073393;28;20205;-70
2023/03/07 02:00:00;;;;;;;66.57;9.40;;;;;;;;;;5073087;28;20204;-69
2023/03/07 02:02:28;;;;;;;68.47;10.40;;;;;;;;;;5073203;28;20205;-70
2023/03/07 02:04:57;;;;;;;71.07;10.50;;;;;;;;;;5072927;28;20225;-69
2023/03/07 02:07:28;;;;;;;68.88;9.85;;;;;;;;;;5072991;28;20231;-70
2023/03/07 02:09:56;;;;;;;66.80;9.60;;;;;;;;;;5072552;28;20216;-70
2023/03/07 02:12:24;;;;;;;69.80;10.55;;;;;;;;;;5073123;28;20208;-70
2023/03/07 02:14:51;;;;;;;69.43;10.65;;;;;;;;;;5073001;28;20208;-69
2023/03/07 02:17:19;;;;;;;69.00;10.57;;;;;;;;;;5072837;28;20231;-70
2023/03/07 02:19:52;;;;;;;72.38;10.80;;;;;;;;;;5072454;28;20296;-71
2023/03/07 02:22:20;;;;;;;72.22;10.68;;;;;;;;;;5072622;28;20209;-70
2023/03/07 02:24:52;;;;;;;68.50;9.65;;;;;;;;;;5072393;28;20314;-70
2023/03/07 02:27:20;;;;;;;66.40;9.73;;;;;;;;;;5072763;28;20264;-70
2023/03/07 02:29:47;;;;;;;67.85;10.80;;;;;;;;;;5072546;28;20206;-70
2023/03/07 02:32:14;;;;;;;69.05;10.50;;;;;;;;;;5072622;28;20562;-69
2023/03/07 02:34:42;;;;;;;66.05;9.52;;;;;;;;;;5072380;28;20205;-70
2023/03/07 02:37:11;;;;;;;65.80;9.95;;;;;;;;;;5072221;28;20753;-70
2023/03/07 02:39:39;;;;;;;68.75;9.90;;;;;;;;;;5072196;28;20258;-70
2023/03/07 02:42:08;;;;;;;68.40;10.57;;;;;;;;;;5071747;28;20296;-70
2023/03/07 02:44:36;;;;;;;69.93;10.88;;;;;;;;;;5072254;28;20221;-71
2023/03/07 02:47:07;;;;;;;67.70;10.20;;;;;;;;;;5072188;28;20225;-69
2023/03/07 02:49:34;;;;;;;65.82;9.85;;;;;;;;;;5072132;28;20209;-69
2023/03/07 02:52:01;;;;;;;67.43;9.40;;;;;;;;;;5072280;28;20204;-70
2023/03/07 02:54:29;;;;;;;66.68;9.88;;;;;;;;;;5070264;28;20217;-69
2023/03/07 02:56:56;;;;;;;69.43;9.50;;;;;;;;;;5071980;28;20713;-70
2023/03/07 02:59:23;;;;;;;67.55;10.10;;;;;;;;;;5071643;28;20296;-70
2023/03/07 03:01:51;;;;;;;68.80;10.88;;;;;;;;;;5072083;28;20201;-70
2023/03/07 03:04:18;;;;;;;68.28;10.50;;;;;;;;;;5071925;28;20303;-69
2023/03/07 03:06:46;;;;;;;67.53;10.05;;;;;;;;;;5071915;28;20235;-70
2023/03/07 03:09:13;;;;;;;69.13;10.50;;;;;;;;;;5071430;28;20236;-69
2023/03/07 03:11:40;;;;;;;67.72;9.95;;;;;;;;;;5072089;28;20205;-70
2023/03/07 03:14:07;;;;;;;66.72;9.93;;;;;;;;;;5072038;28;20205;-70
2023/03/07 03:16:34;;;;;;;67.30;10.30;;;;;;;;;;5071869;28;20247;-70
2023/03/07 03:19:03;;;;;;;66.28;10.45;;;;;;;;;;5071406;28;20215;-70
2023/03/07 03:21:30;;;;;;;66.82;9.77;;;;;;;;;;5071753;28;20263;-70
2023/03/07 03:23:57;;;;;;;67.60;10.30;;;;;;;;;;5071462;28;20732;-70
2023/03/07 03:26:24;;;;;;;70.35;10.88;;;;;;;;;;5071853;28;20228;-70
2023/03/07 03:28:54;;;;;;;68.68;11.02;;;;;;;;;;5071443;28;20677;-70
2023/03/07 03:31:21;;;;;;;70.55;10.88;;;;;;;;;;5071814;28;20283;-70
2023/03/07 03:33:51;;;;;;;68.20;10.00;;;;;;;;;;5071676;28;20205;-70
2023/03/07 03:36:20;;;;;;;69.93;10.82;;;;;;;;;;5071342;28;20712;-70
2023/03/07 03:38:48;;;;;;;68.97;9.55;;;;;;;;;;5071380;28;20382;-70
2023/03/07 03:41:15;;;;;;;69.25;11.30;;;;;;;;;;5071611;28;20734;-70
2023/03/07 03:43:43;;;;;;;70.50;9.65;;;;;;;;;;5071776;28;20295;-70
2023/03/07 03:46:10;;;;;;;70.20;10.52;;;;;;;;;;5071528;28;20229;-70
2023/03/07 03:48:37;;;;;;;69.90;10.63;;;;;;;;;;5071012;28;20197;-70
2023/03/07 03:51:06;;;;;;;70.43;11.43;;;;;;;;;;5071426;28;20209;-71
2023/03/07 03:53:35;;;;;;;69.35;11.32;;;;;;;;;;5073232;28;20207;-69
2023/03/07 03:56:03;;;;;;;71.22;11.82;;;;;;;;;;5075725;28;20228;-69
2023/03/07 03:58:30;;;;;;;71.03;11.27;;;;;;;;;;5075455;28;20201;-69
2023/03/07 04:00:57;;;;;;;68.28;10.73;;;;;;;;;;5075350;28;20216;-70
2023/03/07 04:03:24;;;;;;;70.43;11.73;;;;;;;;;;5075284;28;20568;-69
2023/03/07 04:05:51;;;;;;;67.80;11.05;;;;;;;;;;5075147;28;20224;-69
2023/03/07 04:08:18;;;;;;;67.38;10.65;;;;;;;;;;5075368;28;20226;-69
2023/03/07 04:10:47;;;;;;;68.68;10.93;;;;;;;;;;5075117;28;20212;-69
2023/03/07 04:13:14;;;;;;;69.13;10.60;;;;;;;;;;5075452;28;20204;-70
2023/03/07 04:15:42;;;;;;;72.40;11.48;;;;;;;;;;5075042;28;20225;-70
2023/03/07 04:18:09;;;;;;;69.00;11.98;;;;;;;;;;5075184;28;20591;-70
2023/03/07 04:20:36;;;;;;;66.97;10.15;;;;;;;;;;5074856;28;20212;-70
2023/03/07 04:23:04;;;;;;;67.97;10.43;;;;;;;;;;5075184;28;20587;-69
2023/03/07 04:25:31;;;;;;;69.93;11.30;;;;;;;;;;5074790;28;20229;-69
2023/03/07 04:27:59;;;;;;;69.72;10.40;;;;;;;;;;5075003;28;20211;-69
2023/03/07 04:30:26;;;;;;;67.88;11.45;;;;;;;;;;5074562;28;20211;-70
2023/03/07 04:32:53;;;;;;;69.32;11.10;;;;;;;;;;5074838;28;20696;-69
2023/03/07 04:35:20;;;;;;;68.82;10.77;;;;;;;;;;5074810;28;20252;-69
2023/03/07 04:37:49;;;;;;;67.95;10.35;;;;;;;;;;5074792;28;20215;-70
2023/03/07 04:40:16;;;;;;;70.22;10.65;;;;;;;;;;5074093;28;20208;-70
2023/03/07 04:42:43;;;;;;;69.35;11.45;;;;;;;;;;5074676;28;20693;-70
2023/03/07 04:45:12;;;;;;;69.88;11.85;;;;;;;;;;5074368;28;20254;-69
2023/03/07 04:47:39;;;;;;;72.30;11.65;;;;;;;;;;5074747;28;20201;-69
2023/03/07 04:50:07;;;;;;;69.85;11.55;;;;;;;;;;5074328;28;20682;-70
2023/03/07 04:52:34;;;;;;;67.55;10.90;;;;;;;;;;5074724;28;20296;-70
2023/03/07 04:55:01;;;;;;;72.07;11.20;;;;;;;;;;5074482;28;20579;-69
2023/03/07 04:57:28;;;;;;;69.07;11.30;;;;;;;;;;5074321;28;20586;-70
2023/03/07 04:59:55;;;;;;;69.65;11.68;;;;;;;;;;5074185;28;20212;-69
2023/03/07 05:02:24;;;;;;;70.88;11.85;;;;;;;;;;5074478;28;20201;-70
2023/03/07 05:04:51;;;;;;;68.80;11.18;;;;;;;;;;5073698;28;20221;-69
2023/03/07 05:07:18;;;;;;;71.28;11.57;;;;;;;;;;5073933;28;20720;-69
2023/03/07 05:09:45;;;;;;;69.55;11.30;;;;;;;;;;5073606;28;20210;-70
2023/03/07 05:12:12;;;;;;;69.25;10.88;;;;;;;;;;5073982;28;20212;-70
2023/03/07 05:14:39;;;;;;;69.13;11.13;;;;;;;;;;5073896;28;20221;-69
2023/03/07 05:17:06;;;;;;;71.13;12.23;;;;;;;;;;5074292;28;20225;-69
2023/03/07 05:19:35;;;;;;;69.05;10.85;;;;;;;;;;5073741;28;20588;-70
2023/03/07 05:22:02;;;;;;;70.85;11.40;;;;;;;;;;5074102;28;20201;-70
2023/03/07 05:24:29;;;;;;;68.07;10.95;;;;;;;;;;5073537;28;20213;-70
2023/03/07 05:26:56;;;;;;;69.82;11.20;;;;;;;;;;5074074;28;20233;-69
2023/03/07 05:29:23;;;;;;;70.88;11.85;;;;;;;;;;5073679;28;20580;-70
2023/03/07 05:31:50;;;;;;;69.25;11.30;;;;;;;;;;5073875;28;20205;-70
2023/03/07 05:34:17;;;;;;;70.35;12.10;;;;;;;;;;5073758;28;20220;-70
2023/03/07 05:36:47;;;;;;;69.32;11.70;;;;;;;;;;5073663;28;20217;-69
2023/03/07 05:39:15;;;;;;;70.38;11.65;;;;;;;;;;5073273;28;20228;-69
2023/03/07 05:41:42;;;;;;;67.95;10.80;;;;;;;;;;5074013;28;20258;-70
2023/03/07 05:44:09;;;;;;;68.35;10.48;;;;;;;;;;5073982;28;20231;-70
2023/03/07 05:46:36;;;;;;;70.00;11.10;;;;;;;;;;5073489;28;20233;-70
2023/03/07 05:49:04;;;;;;;68.93;11.23;;;;;;;;;;5073139;28;20596;-69
2023/03/07 05:51:31;;;;;;;70.90;11.18;;;;;;;;;;5073320;28;20578;-70
2023/03/07 05:53:59;;;;;;;70.93;11.80;;;;;;;;;;5073188;28;20209;-70
2023/03/07 05:56:26;;;;;;;69.90;12.32;;;;;;;;;;5073391;28;20224;-69
2023/03/07 05:58:54;;;;;;;70.18;11.32;;;;;;;;;;5073096;28;20205;-69
2023/03/07 06:01:21;;;;;;;71.53;11.77;;;;;;;;;;5073141;28;20205;-69
2023/03/07 06:03:48;;;;;;;68.32;10.00;;;;;;;;;;5073266;28;20232;-69
2023/03/07 06:06:15;;;;;;;68.30;10.30;;;;;;;;;;5072875;28;20229;-69
2023/03/07 06:08:42;;;;;;;67.47;10.63;;;;;;;;;;5072946;28;20209;-69
2023/03/07 06:11:11;;;;;;;70.85;11.40;;;;;;;;;;5073092;28;20201;-70
2023/03/07 06:13:38;;;;;;;69.70;11.50;;;;;;;;;;5073167;28;20235;-69
2023/03/07 06:16:05;;;;;;;69.57;10.25;;;;;;;;;;5072605;28;20218;-69
2023/03/07 06:18:32;;;;;;;67.60;11.00;;;;;;;;;;5071860;28;20215;-70
2023/03/07 06:21:00;;;;;;;69.50;11.38;;;;;;;;;;5073021;28;20215;-69
2023/03/07 06:23:28;;;;;;;68.55;9.73;;;;;;;;;;5072969;28;20669;-69
2023/03/07 06:25:56;;;;;;;73.45;11.63;;;;;;;;;;5072590;28;20233;-70
2023/03/07 06:28:24;;;;;;;68.28;10.30;;;;;;;;;;5072535;28;20205;-71
2023/03/07 06:30:51;;;;;;;72.13;10.82;;;;;;;;;;5072373;28;20212;-69
2023/03/07 06:33:19;;;;;;;69.80;10.77;;;;;;;;;;5072504;28;20201;-69
2023/03/07 06:35:46;;;;;;;68.15;10.80;;;;;;;;;;5072737;28;20221;-69
2023/03/07 06:38:15;;;;;;;69.22;12.25;;;;;;;;;;5072322;28;20225;-70
2023/03/07 06:40:42;;;;;;;71.20;10.93;;;;;;;;;;5072315;28;20209;-69
2023/03/07 06:43:09;;;;;;;69.55;11.02;;;;;;;;;;5072486;28;20201;-70
2023/03/07 06:45:37;;;;;;;71.10;10.50;;;;;;;;;;5072157;28;20233;-69
2023/03/07 06:48:05;;;;;;;70.25;11.93;;;;;;;;;;5071885;28;20211;-69
2023/03/07 06:50:32;;;;;;;67.55;8.88;;;;;;;;;;5072161;28;20605;-69
2023/03/07 06:52:59;;;;;;;67.93;9.60;;;;;;;;;;5072349;28;20209;-69
2023/03/07 06:55:26;;;;;;;68.75;10.52;;;;;;;;;;5072277;28;20221;-69
2023/03/07 06:57:53;;;;;;;68.50;10.77;;;;;;;;;;5072163;28;20608;-69
2023/03/07 07:00:21;;;;;;;66.63;8.88;;;;;;;;;;5070348;28;20209;-70
2023/03/07 07:02:49;;;;;;;67.90;9.95;;;;;;;;;;5072330;28;20253;-69
2023/03/07 07:05:17;;;;;;;68.45;9.95;;;;;;;;;;5072228;28;20225;-70
2023/03/07 07:07:44;;;;;;;66.95;9.60;;;;;;;;;;5072042;28;20205;-70
2023/03/07 07:10:12;;;;;;;67.88;10.70;;;;;;;;;;5071706;28;20557;-69
2023/03/07 07:12:39;;;;;;;68.60;10.18;;;;;;;;;;5072060;28;20209;-69
2023/03/07 07:15:08;;;;;;;70.88;10.27;;;;;;;;;;5071736;28;20577;-70
2023/03/07 07:17:37;;;;;;;75.07;11.02;;;;;;;;;;5071781;28;20201;-69
2023/03/07 07:20:10;;;;;;;70.93;10.35;;;;;;;;;;5071528;28;20241;-69
2023/03/07 07:22:37;;;;;;;68.93;9.77;;;;;;;;;;5071846;28;20212;-70
2023/03/07 07:25:04;;;;;;;70.43;10.65;;;;;;;;;;5071690;28;20213;-69
2023/03/07 07:27:31;;;;;;;66.95;9.18;;;;;;;;;;5071462;28;20279;-69
2023/03/07 07:29:58;;;;;;;68.47;10.07;;;;;;;;;;5071499;28;20205;-70
2023/03/07 07:32:25;;;;;;;66.32;9.23;;;;;;;;;;5071689;28;20239;-70
2023/03/07 07:34:52;;;;;;;67.65;9.60;;;;;;;;;;5071737;28;20296;-69
2023/03/07 07:37:21;;;;;;;69.30;9.68;;;;;;;;;;5071576;28;20231;-69
2023/03/07 07:39:49;;;;;;;66.55;8.93;;;;;;;;;;5071340;28;20209;-69
2023/03/07 07:42:16;;;;;;;66.32;9.95;;;;;;;;;;5072133;28;20669;-69
2023/03/07 07:44:45;;;;;;;66.05;10.00;;;;;;;;;;5071675;28;20205;-69
2023/03/07 07:47:12;;;;;;;66.68;9.20;;;;;;;;;;5071495;28;20236;-69
2023/03/07 07:49:39;;;;;;;71.75;9.15;;;;;;;;;;5071409;28;20205;-70
2023/03/07 07:52:07;;;;;;;67.03;8.75;;;;;;;;;;5071456;28;20207;-69
2023/03/07 07:54:35;;;;;;;68.38;10.25;;;;;;;;;;5071377;28;20211;-69
2023/03/07 07:57:02;;;;;;;68.20;10.82;;;;;;;;;;5071362;28;20217;-69
2023/03/07 07:59:30;;;;;;;68.68;10.55;;;;;;;;;;5071312;28;20201;-70
2023/03/07 08:01:57;;;;;;;65.93;9.25;;;;;;;;;;5071472;28;20209;-70
2023/03/07 08:04:24;;;;;;;65.80;9.70;;;;;;;;;;5071454;28;20205;-69
2023/03/07 08:06:52;;;;;;;67.28;9.60;;;;;;;;;;5071156;28;20225;-70
2023/03/07 08:09:19;;;;;;;66.85;10.63;;;;;;;;;;5071027;28;20766;-69
2023/03/07 08:11:48;;;;;;;66.30;9.23;;;;;;;;;;5071257;28;20211;-70
2023/03/07 08:14:15;;;;;;;67.05;9.45;;;;;;;;;;5071412;28;20209;-69
2023/03/07 08:16:42;;;;;;;67.80;9.43;;;;;;;;;;5071238;28;20221;-69
2023/03/07 08:19:09;;;;;;;65.53;9.27;;;;;;;;;;5071199;28;20493;-69
2023/03/07 08:21:37;;;;;;;68.40;9.35;;;;;;;;;;5071171;28;20459;-69
2023/03/07 08:24:04;;;;;;;68.60;9.05;;;;;;;;;;5071013;28;20206;-70
2023/03/07 08:26:32;;;;;;;64.68;9.35;;;;;;;;;;5071255;28;20233;-69
2023/03/07 08:29:00;;;;;;;66.23;9.13;;;;;;;;;;5071111;28;20689;-69
2023/03/07 08:31:27;;;;;;;67.40;9.43;;;;;;;;;;5071211;28;20450;-69
2023/03/07 08:33:54;;;;;;;66.53;8.47;;;;;;;;;;5071071;28;20457;-70
2023/03/07 08:36:22;;;;;;;68.03;9.43;;;;;;;;;;5070855;28;20459;-69
2023/03/07 08:38:50;;;;;;;67.57;9.50;;;;;;;;;;5071131;28;20824;-69
2023/03/07 08:41:18;;;;;;;65.00;8.87;;;;;;;;;;5073604;28;20454;-69
2023/03/07 08:43:45;;;;;;;68.03;9.90;;;;;;;;;;5074831;28;20451;-69
2023/03/07 08:46:13;;;;;;;66.90;10.27;;;;;;;;;;5074615;28;20802;-69
2023/03/07 08:48:41;;;;;;;69.57;10.27;;;;;;;;;;5074202;28;20443;-70
2023/03/07 08:51:09;;;;;;;69.40;11.67;;;;;;;;;;5074678;28;20462;-69
2023/03/07 08:53:37;;;;;;;66.70;9.80;;;;;;;;;;5074676;28;20458;-69
2023/03/07 08:56:06;;;;;;;65.80;9.27;;;;;;;;;;5074460;28;20473;-69
2023/03/07 08:58:33;;;;;;;67.03;10.10;;;;;;;;;;5074285;28;20469;-70
2023/03/07 09:01:00;;;;;;;65.90;9.23;;;;;;;;;;5074221;28;20451;-69
2023/03/07 09:03:28;;;;;;;64.87;9.10;;;;;;;;;;5074182;28;20447;-69
2023/03/07 09:05:56;;;;;;;67.10;10.57;;;;;;;;;;5074291;28;20839;-69
2023/03/07 09:08:23;;;;;;;66.07;9.10;;;;;;;;;;5074505;28;20439;-69
2023/03/07 09:10:50;;;;;;;69.67;9.50;;;;;;;;;;5074027;28;20451;-69
2023/03/07 09:13:17;;;;;;;66.20;9.70;;;;;;;;;;5073993;28;20489;-70
2023/03/07 09:15:44;;;;;;;64.90;9.20;;;;;;;;;;5073954;28;20975;-69
2023/03/07 09:18:12;;;;;;;67.13;9.37;;;;;;;;;;5074111;28;20455;-70
2023/03/07 09:20:41;;;;;;;65.47;9.23;;;;;;;;;;5073703;28;20976;-69
2023/03/07 09:23:09;;;;;;;67.60;9.37;;;;;;;;;;5074023;28;20454;-70
2023/03/07 09:25:38;;;;;;;65.70;8.37;;;;;;;;;;5073711;28;20506;-70
2023/03/07 09:28:05;;;;;;;66.53;8.40;;;;;;;;;;5073761;28;20497;-70
2023/03/07 09:30:32;;;;;;;64.17;8.27;;;;;;;;;;5073464;28;20454;-69
2023/03/07 09:32:59;;;;;;;64.70;8.30;;;;;;;;;;5074017;28;20455;-70
2023/03/07 09:35:26;;;;;;;65.73;8.30;;;;;;;;;;5073913;28;20485;-70
2023/03/07 09:37:55;;;;;;;65.33;8.13;;;;;;;;;;5073597;28;20451;-70
2023/03/07 09:40:24;;;;;;;64.20;8.00;;;;;;;;;;5073272;28;20546;-70
2023/03/07 09:42:55;;;;;;;64.13;7.70;;;;;;;;;;5073494;28;20447;-70
2023/03/07 09:45:30;;;;;;;63.50;7.20;;;;;;;;;;5073552;28;20980;-69
2023/03/07 09:48:08;;;;;;;62.80;7.23;;;;;;;;;;5073235;28;20494;-70
2023/03/07 09:50:40;;;;;;;64.43;7.63;;;;;;;;;;5072506;28;20447;-70
2023/03/07 09:53:17;;;;;;;63.97;7.73;;;;;;;;;;5073189;28;20459;-69
2023/03/07 09:55:44;;;;;;;62.70;7.43;;;4.80;99.90;;;;;;5073336;28;20557;-69
2023/03/07 09:58:18;;;;;;;64.73;7.40;;;9.50;99.90;;;;;;5072753;28;20444;-72
2023/03/07 10:00:45;;;;;;;62.80;7.50;;;9.00;99.90;;;;;;5072439;28;20451;-71
2023/03/07 10:03:21;;;;;;;64.37;7.30;;;8.60;99.90;;;;;;5072647;28;20552;-71
2023/03/07 10:05:50;;;;;;;63.00;7.50;;;8.60;99.90;;;;;;5071917;28;20614;-68
2023/03/07 10:08:21;;;;;;;63.70;7.30;;;8.40;99.90;;;;;;5072920;28;20451;-69
2023/03/07 10:10:54;;;;;;;63.57;7.10;;;8.30;99.90;;;;;;5072802;28;20531;-71
2023/03/07 10:13:37;;;;;;;63.60;7.47;;;8.10;99.90;;;;;;5072592;28;20450;-72
2023/03/07 10:16:16;;;;;;;62.87;7.73;;;7.60;99.90;;;;;;5072666;28;20471;-70
2023/03/07 10:18:57;;;;;;;62.22;6.30;;;7.40;99.90;;;;;;5071995;28;20533;-70
2023/03/07 10:21:28;;;;;;;62.58;6.80;;;;;;;;;;5072895;28;20205;-69
2023/03/07 10:24:29;;;;;;;64.27;7.40;;;7.30;99.90;;;;;;5072379;28;20215;-72
2023/03/07 10:27:03;;;;;;;63.97;7.17;;;7.40;99.90;;;;;;5036142;28;20489;-69
2023/03/07 10:29:36;;;;;;;63.00;7.00;;;7.10;99.90;;;;;;5072221;28;20443;-70
2023/03/07 10:32:22;;;;;;;67.70;7.38;;;7.10;99.90;;;;;;5072472;28;20451;-66
2023/03/07 10:34:55;;;;;;;62.93;8.10;;;7.00;99.90;;;;;;5072038;28;20209;-67
2023/03/07 10:37:33;;;;;;;63.78;8.10;;;6.90;99.90;;;;;;5072393;28;20467;-68
2023/03/07 10:40:02;;;;;;;64.80;8.10;;;6.80;99.90;;;;;;5072036;28;20215;-67
2023/03/07 10:42:35;;;;;;;64.43;7.50;;;6.70;99.90;;;;;;5072101;28;20508;-67
2023/03/07 10:45:03;;;;;;;64.57;7.45;;;6.60;99.90;;;;;;5072116;28;20209;-67
2023/03/07 10:47:30;;;;;;;65.60;7.25;;;6.60;99.90;;;;;;5071732;28;20729;-70
2023/03/07 10:50:00;;;;;;;64.00;6.85;;;6.60;99.90;;;;;;5071828;28;20580;-70
2023/03/07 10:52:32;;;;;;;62.28;7.10;;;6.60;99.90;;;;;;5072198;28;20215;-72
2023/03/07 10:55:35;;;;;;;64.18;7.10;;;6.70;99.90;;;;;;5071958;28;20205;-72
2023/03/07 10:58:18;;;;;;;63.58;7.90;;;6.70;99.90;;;;;;5071861;28;20250;-69
2023/03/07 11:00:47;;;;;;;67.10;8.50;;;6.80;99.90;;;;;;5072079;28;20235;-69
2023/03/07 11:03:25;;;;;;;62.80;6.65;;;6.70;99.90;;;;;;5070788;28;20629;-68
2023/03/07 11:05:52;;;;;;;64.75;7.13;;;6.60;99.90;;;;;;5071547;28;20311;-70
2023/03/07 11:08:27;;;;;;;64.65;8.40;;;6.60;99.90;;;;;;5071509;28;20225;-70
2023/03/07 11:10:55;;;;;;;67.30;7.70;;;6.70;99.90;;;;;;5071662;28;20557;-69
2023/03/07 11:13:23;;;;;;;62.72;7.60;;;6.80;99.90;;;;;;5071858;28;20681;-70
2023/03/07 11:15:51;;;;;;;65.93;7.80;;;6.80;99.90;;;;;;5071518;28;20606;-69
2023/03/07 11:18:29;;;;;;;64.40;7.15;;;6.70;99.90;;;;;;5071576;28;20201;-68
2023/03/07 11:20:57;;;;;;;64.30;7.30;;;6.60;99.90;;;;;;5071241;28;20204;-71
2023/03/07 11:23:25;;;;;;;63.58;7.72;;;6.60;99.90;;;;;;5071652;28;20205;-68
2023/03/07 11:25:54;;;;;;;64.95;8.00;;;6.70;99.90;;;;;;5071163;28;20256;-67
2023/03/07 11:28:28;;;;;;;62.80;7.35;;;6.60;99.90;;;;;;5071296;28;20311;-68
2023/03/07 11:31:04;;;;;;;65.22;8.20;;;6.70;99.90;;;;;;5071499;28;20220;-67
2023/03/07 11:33:44;;;;;;;65.60;8.40;;;6.60;99.90;;;;;;5071885;28;20215;-69
2023/03/07 11:36:15;;;;;;;64.55;7.28;;;6.60;99.90;;;;;;5071432;28;20229;-68
2023/03/07 11:38:53;;;;;;;67.90;7.50;;;6.70;99.90;;;;;;5071286;28;20205;-69
2023/03/07 11:41:26;;;;;;;62.05;7.10;;;6.80;99.90;;;;;;5071579;28;20209;-68
2023/03/07 11:44:04;;;;;;;69.70;7.82;;;6.80;99.90;;;;;;5071373;28;20215;-68
2023/03/07 11:46:41;;;;;;;64.10;7.45;;;6.80;99.90;;;;;;5071252;28;20225;-68
2023/03/07 11:49:22;;;;;;;65.35;7.55;;;6.90;99.90;;;;;;5071113;28;20204;-68
2023/03/07 11:51:58;;;;;;;66.70;8.45;;;6.80;99.90;;;;;;5071532;28;20248;-68
2023/03/07 11:54:33;;;;;;;63.70;7.50;;;6.90;99.90;;;;;;5071562;28;20200;-68
2023/03/07 11:57:13;;;;;;;63.72;7.40;;;6.90;99.90;;;;;;5071330;28;20889;-67
2023/03/07 12:00:02;;;;;;;62.67;7.22;;;6.90;99.90;;;;;;5070903;28;20205;-67
2023/03/07 12:02:54;;;;;;;64.70;8.15;;;6.70;99.90;;;;;;5071550;28;20190;-68
2023/03/07 12:05:36;;;;;;;67.95;8.73;;;6.60;99.90;;;;;;5071196;28;20213;-68
2023/03/07 12:08:37;;;;;;;65.53;8.80;;;6.50;99.90;;;;;;5071016;28;20239;-67
2023/03/07 12:11:19;;;;;;;63.60;7.13;;;6.50;99.90;;;;;;5071197;28;20224;-67
2023/03/07 12:13:58;;;;;;;63.58;7.28;;;6.50;99.90;;;;;;5071552;28;20213;-67
2023/03/07 12:16:36;;;;;;;67.22;8.55;;;6.50;99.90;;;;;;5074587;28;20231;-67
2023/03/07 12:19:15;;;;;;;64.57;8.40;;;6.60;99.90;;;;;;5074515;28;20646;-67
2023/03/07 12:22:15;;;;;;;62.78;6.82;;;6.70;99.90;;;;;;5075142;28;20561;-67
2023/03/07 12:24:51;;;;;;;63.15;6.43;;;6.90;99.90;;;;;;5074788;28;20803;-68
2023/03/07 12:27:22;;;;;;;62.78;6.78;;;7.00;99.90;;;;;;5074656;28;20239;-68
2023/03/07 12:29:52;;;;;;;62.93;6.93;;;7.20;99.90;;;;;;5074890;28;20605;-68
2023/03/07 12:32:24;;;;;;;62.05;7.00;;;7.20;99.90;;;;;;5074815;28;20504;-68
2023/03/07 12:34:55;;;;;;;63.33;7.33;;;7.50;99.90;;;;;;5074887;28;20209;-67
2023/03/07 12:37:26;;;;;;;64.50;6.63;;;8.20;99.90;;;;;;5075042;28;20846;-70
2023/03/07 12:39:56;;;;;;;64.53;6.67;;;8.90;99.90;;;;;;5074274;28;20822;-68
2023/03/07 12:42:33;;;;;;;65.40;7.10;;;9.50;99.90;;;;;;5074996;28;20820;-69
2023/03/07 12:45:05;;;;;;;63.27;6.93;;;9.80;99.90;;;;;;5074688;28;20538;-68
2023/03/07 12:47:40;;;;;;;64.83;7.63;;;10.00;99.90;;;;;;5074381;28;21023;-70
2023/03/07 12:50:14;;;;;;;62.97;7.20;;;10.10;99.90;;;;;;5073988;28;20816;-67
2023/03/07 12:52:45;;;;;;;62.70;6.93;;;9.90;99.90;;;;;;5074352;28;20818;-67
2023/03/07 12:55:22;;;;;;;63.43;8.47;;;9.90;99.90;;;;;;5074402;28;20449;-68
2023/03/07 12:57:57;;;;;;;64.53;7.50;;;9.80;99.90;;;;;;5074396;28;20443;-67
2023/03/07 13:00:25;;;;;;;68.00;6.80;;;9.70;99.90;;;;;;5074021;28;20454;-68
2023/03/07 13:03:00;;;;;;;65.50;7.80;;;9.50;99.90;;;;;;5074069;28;20597;-67
2023/03/07 13:05:27;;;;;;;64.57;6.77;;;9.30;99.90;;;;;;5074396;28;20463;-68
2023/03/07 13:07:55;;;;;;;65.60;6.80;;;9.50;99.90;;;;;;5074118;28;20493;-67
2023/03/07 13:10:24;;;;;;;63.47;6.80;;;9.70;99.90;;;;;;5074198;28;20443;-67
2023/03/07 13:12:51;;;;;;;65.00;8.90;;;9.60;99.90;;;;;;5074093;28;20439;-67
2023/03/07 13:15:58;;;;;;;64.17;7.90;;;9.60;99.90;;;;;;5073879;28;20443;-68
2023/03/07 13:18:31;;;;;;;62.00;7.20;;;9.80;99.90;;;;;;5068678;28;20462;-68
2023/03/07 13:21:32;;;;;;;62.87;7.20;;;9.80;99.90;;;;;;5072974;28;20452;-68
2023/03/07 13:24:35;;;;;;;65.53;7.60;;;9.90;99.90;;;;;;5062417;28;20982;-68
2023/03/07 13:27:03;;;;;;;63.40;7.20;;;9.80;99.90;;;;;;5062802;28;20471;-68
2023/03/07 13:30:18;;;;;;;65.20;7.30;;;9.00;99.90;;;;;;5073488;28;20451;-67
2023/03/07 13:33:01;;;;;;;62.70;7.23;;;9.50;99.90;;;;;;5011692;28;20792;-67
2023/03/07 13:35:54;;;;;;;61.67;6.50;;;9.30;99.90;;;;;;5065783;28;20843;-67
2023/03/07 13:38:34;;;;;;;62.73;6.03;;;9.00;99.90;;;;;;5073506;28;20440;-66
2023/03/07 13:41:01;;;;;;;61.37;6.77;;;8.70;99.90;;;;;;5073938;28;20443;-68
2023/03/07 13:43:58;;;;;;;61.87;6.00;;;8.30;99.90;;;;;;5073554;28;20542;-68
2023/03/07 13:46:52;;;;;;;64.97;7.28;;;8.00;99.90;;;;;;5073434;28;21007;-67
2023/03/07 13:49:46;;;;;;;63.40;7.07;;;7.80;99.90;;;;;;5073109;28;20649;-67
2023/03/07 13:52:42;;;;;;;62.85;6.28;;;7.80;99.90;;;;;;5073364;28;20448;-68
2023/03/07 13:55:27;;;;;;;66.80;6.97;;;7.80;99.90;;;;;;5073053;28;20313;-67
2023/03/07 13:57:57;;;;;;;61.70;6.20;;;7.80;99.90;;;;;;5073001;28;20443;-67